Time;durP1;ratioP1;P1;durP2;ratioP2;P2;SDS_P1;SDS_P2;PMS_P1;PMS_P2;Temp;Humidity;BMP_temperature;BMP_pressure;BME280_temperature;BME280_humidity;BME280_pressure;Samples;Min_cycle;Max_cycle;Signal;HPM_P1;HPM_P2
2022/04/30 00:00:12;;;;;;;;;;;;;;;9.33;86.25;98200.66;10416439;28;20052;-62
2022/04/30 00:05:11;;;;;;;31.23;16.58;;;;;;;8.99;86.53;98154.47;10416458;28;19915;-62
2022/04/30 00:10:10;;;;;;;35.70;19.08;;;;;;;9.12;86.78;98184.84;10415820;28;20064;-62
2022/04/30 00:15:10;;;;;;;39.13;20.52;;;;;;;9.20;87.09;98201.31;10415638;28;20064;-62
2022/04/30 00:20:09;;;;;;;;;;;;;;;9.15;88.01;98193.50;10415633;28;20060;-62
2022/04/30 00:25:08;;;;;;;27.15;15.55;;;;;;;8.61;88.96;98167.81;10415460;28;19908;-62
2022/04/30 00:30:08;;;;;;;28.58;15.70;;;;;;;8.30;89.99;98151.88;10414386;28;20090;-62
2022/04/30 00:35:08;;;;;;;30.77;16.17;;;;;;;8.57;89.98;98200.50;10415064;28;20055;-62
2022/04/30 00:40:07;;;;;;;29.80;15.85;;;;;;;8.59;90.40;98206.59;10412949;28;20079;-62
2022/04/30 00:45:06;;;;;;;;;;;;;;;8.45;91.14;98197.75;10413325;28;20068;-62
2022/04/30 00:50:06;;;;;;;34.53;17.05;;;;;;;8.45;91.29;98202.94;10414752;28;19960;-62
2022/04/30 00:55:06;;;;;;;31.23;16.23;;;;;;;8.23;91.03;98171.59;10414247;28;20067;-62
2022/04/30 01:00:05;;;;;;;28.83;16.13;;;;;;;8.45;91.21;98198.63;10413088;28;20067;-62
2022/04/30 01:05:05;;;;;;;29.73;16.05;;;;;;;8.48;91.29;98205.56;10415195;28;20067;-62
2022/04/30 01:10:04;;;;;;;;;;;;;;;8.54;91.00;98204.78;10414117;28;20071;-62
2022/04/30 01:15:06;;;;;;;29.67;15.55;;;;;;;8.48;90.85;98196.09;10413397;28;19974;-62
2022/04/30 01:20:06;;;;;;;27.60;15.43;;;;;;;8.29;90.90;98161.34;10413685;28;20070;-62
2022/04/30 01:25:06;;;;;;;34.88;15.00;;;;;;;8.48;90.89;98188.34;10413504;28;20083;-62
2022/04/30 01:30:06;;;;;;;33.97;16.05;;;;;;;8.51;90.60;98196.13;10413021;28;20900;-62
2022/04/30 01:40:23;;;;;;;37.05;16.35;;;;;;;8.35;90.58;98196.75;10413629;28;20064;-62
2022/04/30 01:45:22;;;;;;;29.90;15.48;;;;;;;8.14;91.04;98166.28;10412739;28;20020;-62
2022/04/30 01:50:21;;;;;;;32.20;15.77;;;;;;;8.20;90.48;98175.84;10411649;28;20381;-62
2022/04/30 01:55:20;;;;;;;;;;;;;;;8.23;90.53;98187.09;10420312;28;20068;-62
2022/04/30 02:00:20;;;;;;;30.60;14.80;;;;;;;7.45;90.45;98067.00;10420848;28;19965;-62
2022/04/30 02:05:22;;;;;;;33.83;17.20;;;;;;;8.09;90.65;98179.13;10420755;28;20493;-62
2022/04/30 02:10:22;;;;;;;34.60;16.27;;;;;;;8.07;90.78;98185.13;10420629;28;20064;-62
2022/04/30 02:15:23;;;;;;;37.25;18.15;;;;;;;7.72;91.23;98144.09;10419203;28;20128;-63
2022/04/30 02:20:33;;;;;;;41.90;19.60;;;;;;;7.79;91.55;98176.91;10419815;28;20052;-62
2022/04/30 02:25:32;;;;;;;42.28;19.42;;;;;;;7.39;92.62;98134.03;10420491;28;20067;-62
2022/04/30 02:30:35;;;;;;;41.45;18.63;;;;;;;7.66;92.11;98175.88;10419569;28;20040;-62
2022/04/30 02:35:36;;;;;;;42.30;17.77;;;;;;;7.62;91.86;98174.06;10419049;28;20064;-62
2022/04/30 02:40:36;;;;;;;44.28;18.00;;;;;;;7.33;91.78;98132.19;10419793;28;20512;-62
2022/04/30 02:45:37;;;;;;;39.28;18.45;;;;;;;7.43;92.28;98184.91;10418827;28;20052;-62
2022/04/30 02:50:36;;;;;;;39.50;18.27;;;;;;;7.22;92.05;98149.22;10418075;28;20462;-62
2022/04/30 02:55:36;;;;;;;40.05;18.40;;;;;;;7.37;92.22;98175.28;10419267;28;20056;-62
2022/04/30 03:00:39;;;;;;;;;;;;;;;7.23;92.63;98184.50;10419264;28;20068;-62
2022/04/30 03:05:43;;;;;;;51.58;22.48;;;;;;;6.78;93.20;98129.44;10418453;28;20445;-62
2022/04/30 03:10:44;;;;;;;43.80;21.02;;;;;;;6.16;93.15;98031.06;10417165;28;20072;-62
2022/04/30 03:15:45;;;;;;;52.45;22.25;;;;;;;7.12;92.72;98196.31;10418308;28;20166;-62
2022/04/30 03:25:58;;;;;;;50.40;21.38;;;;;;;7.20;93.23;98194.78;10418252;28;20529;-62
2022/04/30 03:30:56;;;;;;;45.42;21.38;;;;;;;6.59;93.23;98104.13;10416164;28;20466;-62
2022/04/30 03:35:55;;;;;;;48.85;20.95;;;;;;;7.21;92.85;98205.09;10416832;28;20410;-62
2022/04/30 03:40:55;;;;;;;45.60;19.75;;;;;;;7.00;92.54;98160.81;10416842;28;20043;-62
2022/04/30 03:45:54;;;;;;;45.78;18.05;;;;;;;7.39;93.52;98214.06;10416189;28;20080;-62
2022/04/30 03:50:53;;;;;;;36.15;16.95;;;;;;;7.16;93.12;98177.47;10417100;28;20032;-62
2022/04/30 03:55:53;;;;;;;36.88;16.38;;;;;;;7.47;93.74;98217.66;10416727;28;20071;-62
2022/04/30 04:00:53;;;;;;;34.00;16.17;;;;;;;7.49;93.67;98215.13;10416631;28;20384;-62
2022/04/30 04:05:52;;;;;;;32.60;15.93;;;;;;;7.61;92.96;98220.50;10415647;28;20063;-62
2022/04/30 04:10:51;;;;;;;38.40;16.80;;;;;;;7.66;92.99;98203.38;10416041;28;20036;-62
2022/04/30 04:21:08;;;;;;;46.75;19.05;;;;;;;8.05;93.43;98226.44;10415600;28;20076;-62
2022/04/30 04:26:07;;;;;;;43.15;19.52;;;;;;;8.20;93.41;98219.78;10415151;28;20100;-63
2022/04/30 04:31:06;;;;;;;45.03;20.73;;;;;;;7.61;92.93;98104.28;10364356;27;20502;-64
2022/04/30 04:36:06;;;;;;;45.58;21.35;;;;;;;8.30;93.00;98204.44;10373708;28;20045;-62
2022/04/30 04:41:04;;;;;;;;;;;;;;;8.60;92.82;98212.63;10372947;28;20064;-63
2022/04/30 04:46:03;;;;;;;43.65;19.85;;;;;;;8.61;93.12;98225.59;10370287;28;19915;-62
2022/04/30 04:51:03;;;;;;;43.35;19.33;;;;;;;8.77;92.57;98231.84;10369687;28;20498;-62
2022/04/30 04:56:03;;;;;;;38.72;18.58;;;;;;;8.82;92.59;98232.78;10370374;28;20068;-63
2022/04/30 05:01:03;;;;;;;34.75;17.77;;;;;;;8.82;92.13;98230.19;10372838;28;20060;-62
2022/04/30 05:06:02;;;;;;;33.38;16.85;;;;;;;8.81;91.96;98219.81;10372795;28;20060;-62
2022/04/30 05:11:01;;;;;;;35.05;18.02;;;;;;;9.05;91.87;98224.47;10372667;28;20063;-62
2022/04/30 05:16:00;;;;;;;30.83;17.48;;;;;;;9.06;91.71;98221.00;10372976;28;20032;-62
2022/04/30 05:20:59;;;;;;;30.08;17.25;;;;;;;9.10;91.68;98240.91;10372392;28;20032;-63
2022/04/30 05:25:58;;;;;;;37.50;16.95;;;;;;;9.19;91.24;98243.63;10372249;28;20041;-62
2022/04/30 05:30:57;;;;;;;31.27;17.73;;;;;;;8.99;91.58;98203.66;10372395;28;20087;-62
2022/04/30 05:35:57;;;;;;;132.23;82.03;;;;;;;9.03;90.22;98213.22;10371942;28;20037;-62
2022/04/30 05:40:56;;;;;;;44.28;25.30;;;;;;;9.10;90.41;98240.91;10372200;28;20079;-63
2022/04/30 05:45:55;;;;;;;35.30;21.38;;;;;;;9.33;90.56;98255.03;10371014;28;20068;-63
2022/04/30 05:50:54;;;;;;;33.33;18.52;;;;;;;9.24;89.69;98234.19;10371546;28;20048;-63
2022/04/30 05:55:54;;;;;;;42.95;24.63;;;;;;;9.29;89.09;98217.00;10370535;28;20073;-63
2022/04/30 06:00:53;;;;;;;36.05;21.90;;;;;;;9.65;89.25;98258.84;10371902;28;20064;-63
2022/04/30 06:05:52;;;;;;;30.55;19.42;;;;;;;9.47;88.09;98195.63;10369753;28;20402;-63
2022/04/30 06:10:51;;;;;;;33.92;19.30;;;;;;;9.75;88.17;98220.09;10370443;28;20495;-63
2022/04/30 06:15:50;;;;;;;33.85;19.80;;;;;;;10.15;87.91;98250.69;10371185;28;20589;-63
2022/04/30 06:20:48;;;;;;;44.10;24.83;;;;;;;10.37;87.94;98259.53;10371234;28;20480;-62
2022/04/30 06:25:47;;;;;;;42.78;23.55;;;;;;;10.51;87.54;98273.47;10370224;28;20051;-62
2022/04/30 06:30:46;;;;;;;42.33;24.10;;;;;;;10.56;87.06;98276.09;10370433;28;20534;-62
2022/04/30 06:35:45;;;;;;;39.97;21.02;;;;;;;10.11;87.44;98200.53;10370880;28;20037;-62
2022/04/30 06:40:44;;;;;;;38.10;20.95;;;;;;;10.26;88.01;98230.03;10375877;28;20471;-63
2022/04/30 06:45:43;;;;;;;32.53;18.20;;;;;;;10.59;87.68;98276.13;10375781;28;20064;-62
2022/04/30 06:50:43;;;;;;;36.75;20.35;;;;;;;10.66;87.31;98274.44;10373910;28;20041;-62
2022/04/30 07:06:03;;;;;;;31.40;16.88;;;;;;;11.35;85.78;98223.75;10377581;28;20456;-63
2022/04/30 07:11:02;;;;;;;31.75;16.65;;;;;;;11.82;84.48;98243.81;10377193;28;20060;-64
2022/04/30 07:16:03;;;;;;;30.02;16.15;;;;;;;12.15;83.11;98264.66;10375767;28;20080;-62
2022/04/30 07:21:02;;;;;;;31.42;15.63;;;;;;;11.53;81.85;98149.31;10376933;28;20060;-62
2022/04/30 07:26:02;;;;;;;30.67;16.63;;;;;;;12.28;81.99;98262.09;10375871;28;20041;-62
2022/04/30 07:31:02;;;;;;;28.75;15.85;;;;;;;12.47;81.28;98265.56;10376340;28;20099;-62
2022/04/30 07:36:03;;;;;;;30.35;15.75;;;;;;;12.93;80.70;98275.06;10376495;28;20068;-62
2022/04/30 07:41:02;;;;;;;31.73;15.07;;;;;;;13.35;78.93;98281.00;10375923;28;20060;-62
2022/04/30 07:46:01;;;;;;;;;;;;;;;13.40;76.41;98289.69;10350148;28;20073;-62
2022/04/30 07:51:00;;;;;;;28.75;13.73;;;;;;;13.40;76.72;98291.41;10335513;28;19915;-62
2022/04/30 07:55:59;;;;;;;;;;;;;;;13.61;75.88;98287.88;10333793;28;20503;-62
2022/04/30 08:00:59;;;;;;;22.33;13.07;;;;;;;13.13;75.06;98166.44;10366251;28;20379;-62
2022/04/30 08:05:58;;;;;;;23.85;13.48;;;;;;;13.72;74.56;98271.31;10357061;28;20044;-62
2022/04/30 08:10:57;;;;;;;22.13;13.48;;;;;;;13.26;73.98;98210.69;10374113;28;20102;-62
2022/04/30 08:15:56;;;;;;;22.33;12.38;;;;;;;13.86;73.97;98263.41;10374821;28;20041;-62
2022/04/30 08:20:55;;;;;;;23.05;12.30;;;;;;;13.60;72.64;98207.94;10374858;28;20037;-62
2022/04/30 08:25:54;;;;;;;18.13;11.88;;;;;;;14.29;72.69;98250.09;10373886;28;20487;-62
2022/04/30 08:30:53;;;;;;;20.42;12.88;;;;;;;14.57;72.59;98236.78;10374101;28;20156;-62
2022/04/30 08:35:53;;;;;;;;;;;;;;;15.22;70.46;98250.94;10373724;28;20502;-62
2022/04/30 08:40:52;;;;;;;19.67;10.80;;;;;;;15.88;69.44;98250.13;10373746;28;20357;-62
2022/04/30 08:45:51;;;;;;;;;;;;;;;16.15;64.10;98236.63;10373197;28;20479;-62
2022/04/30 08:50:50;;;;;;;18.45;10.52;;;;;;;15.97;63.70;98203.75;10373148;28;19958;-62
2022/04/30 08:55:49;;;;;;;;;;;;;;;16.29;60.87;98224.19;10372528;28;20055;-62
2022/04/30 09:00:48;;;;;;;13.88;8.75;;;;;;;16.67;61.34;98228.75;10371397;28;19908;-62
2022/04/30 09:05:48;;;;;;;15.27;9.57;;;;;;;16.32;60.88;98183.97;10373110;28;20056;-62
2022/04/30 09:10:48;;;;;;;15.07;8.98;;;;;;;16.14;62.68;98172.03;10372611;28;20064;-62
2022/04/30 09:15:47;;;;;;;12.57;8.15;;;;;;;16.27;61.41;98187.53;10372400;28;20075;-62
2022/04/30 09:20:48;;;;;;;13.57;8.43;;;;;;;16.49;61.13;98187.19;10372768;28;20028;-62
2022/04/30 09:25:53;;;;;;;12.25;8.50;;;;;;;16.46;60.58;98195.94;10371721;28;20071;-62
2022/04/30 09:31:06;;;;;;;15.20;7.88;;;;;;;16.65;59.64;98195.59;10372101;28;20080;-62
2022/04/30 09:41:27;;;;;;;10.30;6.90;;;;;;;16.06;59.92;98153.84;10373065;28;20064;-62
2022/04/30 09:46:28;;;;;;;11.43;6.57;;;;;;;16.43;60.11;98125.28;10370036;28;20465;-62
2022/04/30 09:56:49;;;;;;;9.48;5.95;;;;;;;16.50;58.10;98170.56;10372179;28;20087;-62
2022/04/30 10:01:48;;;;;;;7.88;5.65;;;;;;;16.49;57.34;98138.25;10371457;28;20481;-62
2022/04/30 10:06:49;;;;;;;6.75;4.13;;;;;;;16.95;54.05;98146.16;10371439;28;20061;-62
2022/04/30 10:12:16;;;;;;;6.32;3.90;;;;;;;16.46;53.38;98163.63;10370586;28;20060;-62
2022/04/30 10:17:20;;;;;;;6.75;3.90;;;;;;;16.18;54.01;98135.31;10378733;28;20509;-62
2022/04/30 10:22:19;;;;;;;8.23;5.05;;;;;;;16.22;54.85;98130.91;10379410;28;20457;-62
2022/04/30 10:27:18;;;;;;;;;;;;;;;16.41;52.86;98118.34;10378482;28;20601;-62
2022/04/30 10:32:28;;;;;;;5.10;3.93;;;;;;;16.37;53.23;98080.88;10378147;28;20437;-62
2022/04/30 10:37:33;;;;;;;5.40;4.03;;;;;;;16.75;53.48;98108.06;10378755;28;20060;-61
2022/04/30 10:42:44;;;;;;;4.13;3.05;;;;;;;16.55;51.45;98105.84;10378508;28;20054;-61
2022/04/30 10:47:52;;;;;;;3.67;2.60;;;;;;;16.25;50.17;98078.47;10377732;28;20065;-61
2022/04/30 10:52:54;;;;;;;4.28;2.95;;;;;;;16.88;49.01;98098.22;10377088;28;20068;-61
2022/04/30 10:57:53;;;;;;;3.65;2.50;;;;;;;16.99;47.68;98074.41;10378215;28;20064;-61
2022/04/30 11:02:52;;;;;;;3.25;2.30;;;;;;;17.71;46.92;98085.88;10378304;28;20461;-61
2022/04/30 11:07:51;;;;;;;2.78;2.33;;;;;;;17.28;46.77;98060.63;10377257;28;20467;-62
2022/04/30 11:13:01;;;;;;;3.70;2.13;;;;;;;17.28;45.82;98035.25;10378216;28;20053;-61
2022/04/30 11:18:00;;;;;;;2.65;1.92;;;;;;;17.08;45.06;98033.13;10375954;28;20072;-61
2022/04/30 11:23:02;;;;;;;3.67;2.40;;;;;;;17.19;44.85;98029.38;10377608;28;20091;-61
2022/04/30 11:28:06;;;;;;;2.53;2.08;;;;;;;16.99;44.41;97990.53;10376090;28;20068;-61
2022/04/30 11:33:05;;;;;;;11.57;6.07;;;;;;;17.27;45.31;98043.19;10376514;28;20091;-61
2022/04/30 11:38:10;;;;;;;3.58;2.10;;;;;;;17.14;45.18;98058.31;10376039;28;20063;-61
2022/04/30 11:43:09;;;;;;;3.88;2.00;;;;;;;16.82;44.63;98017.13;10375833;28;20059;-61
2022/04/30 11:48:10;;;;;;;4.10;2.83;;;;;;;17.35;44.37;98062.22;10354970;28;20057;-61
2022/04/30 11:53:09;;;;;;;3.38;2.28;;;;;;;17.60;44.11;98051.16;10359894;28;20057;-61
2022/04/30 11:58:08;;;;;;;5.32;2.60;;;;;;;17.60;43.13;98052.00;10352055;28;20117;-61
2022/04/30 12:03:07;;;;;;;3.13;2.20;;;;;;;17.54;42.81;98037.28;10351558;28;20080;-61
2022/04/30 12:08:06;;;;;;;;;;;;;;;17.56;42.33;98050.34;10334895;28;20027;-61
2022/04/30 12:13:05;;;;;;;3.50;2.63;;;;;;;17.60;42.25;98036.25;10333771;28;20440;-61
2022/04/30 12:28:50;;;;;;;3.17;2.40;;;;;;;17.82;42.19;97999.00;10374548;28;19959;-61
2022/04/30 12:33:50;;;;;;;2.45;1.95;;;;;;;17.67;40.34;97917.09;10374250;28;20080;-61
2022/04/30 12:38:56;;;;;;;3.40;2.20;;;;;;;17.92;40.58;98013.63;10373208;28;20072;-61
2022/04/30 12:43:56;;;;;;;4.45;2.80;;;;;;;17.25;41.20;97946.16;10373240;28;20064;-61
2022/04/30 12:48:55;;;;;;;4.50;2.90;;;;;;;17.16;42.39;97967.38;10373878;28;20060;-61
2022/04/30 12:53:54;;;;;;;4.22;3.00;;;;;;;16.97;41.82;97977.44;10373584;28;20116;-61
2022/04/30 12:58:53;;;;;;;5.07;2.72;;;;;;;17.17;42.30;98005.81;10373389;28;20029;-61
2022/04/30 13:03:52;;;;;;;;;;;;;;;17.18;41.96;98004.91;10373127;28;20060;-61
2022/04/30 13:14:10;;;;;;;2.95;2.05;;;;;;;17.11;41.09;98000.72;10372887;28;20447;-62
2022/04/30 13:19:10;;;;;;;3.03;2.47;;;;;;;17.12;41.06;97991.94;10372349;28;20048;-63
2022/04/30 13:24:09;;;;;;;2.80;2.10;;;;;;;17.41;41.65;97985.16;10372423;28;20705;-63
2022/04/30 13:29:10;;;;;;;5.85;2.70;;;;;;;17.61;42.17;97982.00;10372281;28;20931;-63
2022/04/30 13:34:10;;;;;;;3.95;2.47;;;;;;;17.75;42.01;97936.16;10371975;28;20079;-63
2022/04/30 13:39:09;;;;;;;3.47;2.55;;;;;;;17.89;39.44;97969.06;10372282;28;20586;-63
2022/04/30 13:44:09;;;;;;;3.40;2.55;;;;;;;17.47;40.04;97922.00;10371474;28;20474;-62
2022/04/30 13:49:08;;;;;;;2.92;2.35;;;;;;;17.53;40.37;97967.31;10376580;28;20064;-62
2022/04/30 13:54:07;;;;;;;3.42;2.40;;;;;;;17.29;41.56;97934.72;10379416;28;20029;-62
2022/04/30 13:59:06;;;;;;;3.33;3.03;;;;;;;17.38;41.97;97928.38;10380307;28;20152;-62
2022/04/30 14:04:05;;;;;;;6.78;2.70;;;;;;;17.46;41.36;97959.66;10379664;28;20053;-62
2022/04/30 14:09:04;;;;;;;3.17;2.45;;;;;;;16.83;40.92;97900.88;10379914;28;20025;-62
2022/04/30 14:19:20;;;;;;;4.25;2.78;;;;;;;17.12;40.86;97949.97;10379126;28;19951;-62
2022/04/30 14:24:19;;;;;;;3.60;2.53;;;;;;;17.23;40.72;97952.34;10378930;28;20032;-62
2022/04/30 14:29:18;;;;;;;;;;;;;;;17.21;40.82;97954.16;10379060;28;20025;-62
2022/04/30 14:34:17;;;;;;;5.87;2.90;;;;;;;17.32;41.67;97955.59;10378475;28;20011;-62
2022/04/30 14:39:16;;;;;;;;;;;;;;;17.37;41.67;97952.00;10380362;28;20120;-62
2022/04/30 14:44:16;;;;;;;5.20;2.93;;;;;;;17.21;41.83;97954.16;10378276;28;19970;-62
2022/04/30 14:49:14;;;;;;;3.72;2.70;;;;;;;16.93;41.69;97947.81;10376244;28;20053;-62
2022/04/30 14:54:13;;;;;;;;;;;;;;;16.83;42.14;97959.41;10378542;28;20035;-62
2022/04/30 14:59:13;;;;;;;7.20;4.33;;;;;;;16.93;42.41;97954.81;10376886;28;20394;-62
2022/04/30 15:04:11;;;;;;;7.00;3.60;;;;;;;16.84;42.76;97957.63;10376989;28;20067;-62
2022/04/30 15:09:10;;;;;;;;;;;;;;;16.71;42.84;97952.66;10377621;28;20025;-62
2022/04/30 15:14:09;;;;;;;5.47;3.40;;;;;;;16.59;43.03;97949.44;10377302;28;20404;-62
2022/04/30 15:19:08;;;;;;;;;;;;;;;16.43;43.11;97949.78;10377237;28;20488;-62
2022/04/30 15:24:07;;;;;;;7.22;4.00;;;;;;;16.09;43.22;97903.34;10376815;28;20285;-62
2022/04/30 15:29:06;;;;;;;8.65;4.57;;;;;;;16.44;43.89;97942.78;10376763;28;20060;-62
2022/04/30 15:34:05;;;;;;;7.80;4.32;;;;;;;16.46;44.00;97949.69;10375796;28;20073;-62
2022/04/30 15:39:04;;;;;;;;;;;;;;;16.49;43.67;97949.66;10375554;28;20124;-62
2022/04/30 15:44:03;;;;;;;7.47;4.50;;;;;;;16.12;43.59;97891.09;10376439;28;20366;-62
2022/04/30 15:54:20;;;;;;;5.18;3.47;;;;;;;16.70;43.47;97952.69;10375586;28;20496;-62
2022/04/30 15:59:19;;;;;;;10.32;4.63;;;;;;;16.61;43.78;97916.22;10374323;28;20095;-62
2022/04/30 16:04:17;;;;;;;;;;;;;;;16.63;43.51;97946.72;10375416;28;20021;-62
2022/04/30 16:09:17;;;;;;;6.37;3.60;;;;;;;16.56;43.74;97954.72;10374959;28;20007;-62
2022/04/30 16:14:16;;;;;;;3.67;2.70;;;;;;;16.34;43.68;97949.97;10373440;28;20502;-62
2022/04/30 16:19:14;;;;;;;;;;;;;;;16.20;44.16;97958.09;10375120;28;20029;-62
2022/04/30 16:24:15;;;;;;;6.83;4.37;;;;;;;16.09;44.32;97936.50;10406533;28;20007;-62
2022/04/30 16:29:16;;;;;;;6.32;4.35;;;;;;;15.61;44.18;97895.53;10374405;28;20593;-62
2022/04/30 16:34:15;;;;;;;6.80;4.07;;;;;;;15.76;44.49;97946.69;10373523;28;20103;-63
2022/04/30 16:39:14;;;;;;;9.65;5.00;;;;;;;15.47;45.37;97928.94;10372677;28;20068;-62
2022/04/30 16:44:13;;;;;;;;;;;;;;;15.65;45.56;97985.31;10374308;28;20025;-62
2022/04/30 16:49:12;;;;;;;11.77;5.75;;;;;;;15.63;45.90;97984.47;10405193;28;20298;-62
2022/04/30 16:54:11;;;;;;;11.82;6.90;;;;;;;15.59;46.59;97990.63;10372980;28;20112;-62
2022/04/30 16:59:10;;;;;;;9.52;4.65;;;;;;;15.33;47.01;97978.00;10372516;28;20068;-62
2022/04/30 17:04:09;;;;;;;7.80;4.55;;;;;;;15.21;46.83;97990.38;10372939;28;20067;-62
2022/04/30 17:09:08;;;;;;;;;;;;;;;15.13;47.00;97991.38;10373339;28;20151;-62
2022/04/30 17:14:07;;;;;;;8.07;5.20;;;;;;;15.05;47.10;97988.88;10371568;28;19920;-62
2022/04/30 17:19:07;;;;;;;;;;;;;;;14.90;47.56;97994.38;10372654;28;20456;-62
2022/04/30 17:24:06;;;;;;;20.27;10.03;;;;;;;14.48;47.90;97955.72;10372202;28;19967;-62
2022/04/30 17:29:05;;;;;;;9.80;5.07;;;;;;;14.17;47.89;97950.91;10371189;28;20838;-62
2022/04/30 17:39:23;;;;;;;4.93;3.42;;;;;;;13.60;48.63;97970.66;10412494;28;20734;-62
2022/04/30 17:44:22;;;;;;;7.25;4.38;;;;;;;13.75;49.26;98020.06;10412807;28;20090;-62
2022/04/30 17:49:22;;;;;;;8.45;4.75;;;;;;;13.43;49.50;97989.88;10413226;28;20048;-62
2022/04/30 17:54:21;;;;;;;10.73;5.80;;;;;;;13.51;49.56;98037.59;10412719;28;20064;-62
2022/04/30 17:59:21;;;;;;;7.75;5.45;;;;;;;13.17;49.66;98015.31;10412826;28;20068;-62
2022/04/30 18:04:20;;;;;;;9.63;6.03;;;;;;;13.27;50.41;98036.06;10412896;28;20060;-62
2022/04/30 18:09:19;;;;;;;83.18;43.60;;;;;;;12.98;51.16;98023.25;10412842;28;20028;-62
2022/04/30 18:14:20;;;;;;;40.38;23.38;;;;;;;13.01;51.91;98051.88;10412029;28;20141;-62
2022/04/30 18:19:20;;;;;;;18.27;9.75;;;;;;;12.45;53.55;97998.34;10412943;28;20064;-62
2022/04/30 18:24:19;;;;;;;18.42;9.45;;;;;;;12.50;54.50;98038.22;10411321;28;20071;-62
2022/04/30 18:29:18;;;;;;;13.80;8.52;;;;;;;12.53;55.60;98079.84;10409859;28;20044;-62
2022/04/30 18:34:17;;;;;;;12.88;8.60;;;;;;;12.14;56.32;98047.88;10413440;28;20049;-63
2022/04/30 18:39:16;;;;;;;16.42;10.55;;;;;;;12.11;57.53;98076.50;10405375;28;20076;-63
2022/04/30 18:44:18;;;;;;;15.68;10.13;;;;;;;11.81;59.57;98073.06;10417494;28;20036;-62
2022/04/30 18:49:20;;;;;;;16.50;10.63;;;;;;;11.52;60.10;98046.22;10417603;28;20068;-63
2022/04/30 19:04:54;;;;;;;16.45;6.68;;;;;;;10.95;61.07;98035.78;10419404;28;20052;-62
2022/04/30 19:09:53;;;;;;;11.77;6.57;;;;;;;10.93;61.23;98048.75;10417158;28;20040;-62
2022/04/30 19:14:52;;;;;;;12.60;6.95;;;;;;;10.95;62.11;98075.59;10417407;28;20064;-62
2022/04/30 19:19:51;;;;;;;11.75;8.20;;;;;;;11.06;61.99;98116.28;10418920;28;20099;-62
2022/04/30 19:24:50;;;;;;;23.00;14.13;;;;;;;10.64;63.48;98063.34;10416144;28;20543;-62
2022/04/30 19:29:49;;;;;;;24.80;13.60;;;;;;;10.79;64.00;98123.94;10417303;28;20374;-62
2022/04/30 19:34:48;;;;;;;12.27;8.90;;;;;;;10.65;64.35;98115.25;10417503;28;20046;-62
2022/04/30 19:39:52;;;;;;;13.23;7.85;;;;;;;10.09;64.81;98048.38;10417427;28;20178;-62
2022/04/30 19:44:51;;;;;;;9.73;6.55;;;;;;;9.63;66.05;97999.72;10416279;28;20067;-62
2022/04/30 19:49:50;;;;;;;9.45;6.28;;;;;;;10.19;65.92;98125.38;10418248;28;20068;-62
2022/04/30 19:54:49;;;;;;;8.77;5.70;;;;;;;10.02;67.27;98120.06;10414813;28;20036;-62
2022/04/30 19:59:49;;;;;;;8.43;4.78;;;;;;;9.51;67.70;98072.16;10416509;28;20071;-62
2022/04/30 20:04:48;;;;;;;7.57;4.40;;;;;;;9.70;68.38;98120.72;10416623;28;20061;-62
2022/04/30 20:09:47;;;;;;;6.22;4.28;;;;;;;9.47;68.16;98097.19;10415751;28;20068;-62
2022/04/30 20:20:04;;;;;;;7.43;4.57;;;;;;;9.21;68.71;98099.50;10415414;28;20120;-62
2022/04/30 20:25:04;;;;;;;9.65;5.75;;;;;;;9.27;69.37;98120.25;10415500;28;20063;-62
2022/04/30 20:30:03;;;;;;;9.70;7.05;;;;;;;8.91;69.87;98084.53;10414841;28;20084;-62
2022/04/30 20:40:21;;;;;;;9.18;6.78;;;;;;;8.63;70.93;98091.09;10415030;28;20068;-62
2022/04/30 20:45:20;;;;;;;11.95;7.57;;;;;;;8.82;71.14;98133.59;10414514;28;20487;-62
2022/04/30 20:50:19;;;;;;;9.25;6.47;;;;;;;8.49;71.61;98098.69;10414366;28;20405;-62
2022/04/30 20:55:20;;;;;;;10.52;6.90;;;;;;;8.00;72.46;98039.44;10414223;28;20063;-62
2022/04/30 21:00:20;;;;;;;18.80;8.95;;;;;;;8.37;72.61;98107.16;10413712;28;20071;-62
2022/04/30 21:05:18;;;;;;;11.75;6.70;;;;;;;8.14;72.66;98080.13;10414088;28;20052;-62
2022/04/30 21:10:18;;;;;;;9.57;6.07;;;;;;;8.41;73.33;98149.41;10414171;28;20071;-63
2022/04/30 21:15:17;;;;;;;16.13;10.18;;;;;;;8.05;74.48;98109.28;10414325;28;20489;-62
2022/04/30 21:20:16;;;;;;;;;;;;;;;8.22;75.12;98143.13;10413847;28;20060;-62
2022/04/30 21:25:15;;;;;;;16.70;11.75;;;;;;;8.19;75.34;98149.13;10413966;28;19912;-62
2022/04/30 21:30:16;;;;;;;11.35;7.50;;;;;;;8.18;75.14;98149.13;10412941;28;20080;-62
2022/04/30 21:35:15;;;;;;;10.07;6.35;;;;;;;8.03;75.51;98137.69;10413165;28;20106;-62
2022/04/30 21:41:52;;;;;;;7.97;5.43;;;;;;;7.81;75.27;98115.81;10413610;28;20068;-62
2022/04/30 21:45:33;;;;;;;10.32;5.97;;;;;;;7.64;75.69;98099.19;10412705;28;20075;-62
2022/04/30 21:50:32;;;;;;;25.42;16.92;;;;;;;7.72;76.42;98125.13;10413102;28;20064;-62
2022/04/30 22:01:16;;;;;;;38.58;24.30;;;;;;;7.52;77.63;98117.94;10412722;28;20072;-62
2022/04/30 22:06:16;;;;;;;19.73;12.68;;;;;;;7.17;77.77;98074.28;10412107;28;20056;-62
2022/04/30 22:11:17;;;;;;;15.85;9.52;;;;;;;7.54;77.50;98152.38;10416989;28;20059;-62
2022/04/30 22:16:19;;;;;;;12.07;7.88;;;;;;;7.49;78.12;98138.53;10418596;28;20064;-63
2022/04/30 22:21:18;;;;;;;11.98;7.57;;;;;;;7.30;77.92;98129.56;10417903;28;20110;-62
2022/04/30 22:26:17;;;;;;;10.95;7.38;;;;;;;7.06;78.35;98095.56;10418246;28;20055;-62
2022/04/30 22:31:16;;;;;;;10.95;6.63;;;;;;;7.01;78.27;98091.19;10419560;28;20142;-62
2022/04/30 22:36:15;;;;;;;12.63;8.68;;;;;;;7.15;79.03;98117.25;10419530;28;20036;-62
2022/04/30 22:46:43;;;;;;;16.52;11.07;;;;;;;6.95;80.18;98103.97;10419395;28;20059;-62
2022/04/30 22:51:46;;;;;;;18.48;11.88;;;;;;;6.84;80.22;98102.88;10419018;28;20067;-62
2022/04/30 22:56:45;;;;;;;18.60;10.52;;;;;;;6.82;80.77;98096.84;10418644;28;20075;-62
2022/04/30 23:01:44;;;;;;;13.75;9.02;;;;;;;6.75;80.85;98093.28;10419021;28;20074;-62
2022/04/30 23:06:43;;;;;;;15.77;9.98;;;;;;;6.87;80.74;98127.91;10418598;28;20036;-62
2022/04/30 23:11:41;;;;;;;17.10;10.43;;;;;;;6.74;81.23;98119.91;10418430;28;20107;-62
2022/04/30 23:16:40;;;;;;;20.13;10.50;;;;;;;6.60;81.42;98103.28;10417874;28;20062;-62
2022/04/30 23:21:39;;;;;;;17.25;10.15;;;;;;;6.72;81.54;98134.47;10417578;28;20028;-62
2022/04/30 23:26:38;;;;;;;19.10;10.43;;;;;;;6.66;80.96;98144.66;10417896;28;20035;-62
2022/04/30 23:31:37;;;;;;;16.52;10.15;;;;;;;6.60;81.36;98142.81;10417768;28;20501;-62
2022/04/30 23:36:36;;;;;;;24.10;12.82;;;;;;;6.52;82.23;98148.69;10417511;28;20436;-62
2022/04/30 23:41:35;;;;;;;21.48;13.18;;;;;;;6.03;82.34;98076.31;10417169;28;20382;-62
2022/04/30 23:46:36;;;;;;;19.90;13.10;;;;;;;6.22;82.06;98102.50;10417161;28;20036;-62
2022/04/30 23:51:35;;;;;;;17.67;11.77;;;;;;;6.22;82.80;98123.97;10417016;28;20090;-62
2022/04/30 23:56:34;;;;;;;18.35;12.13;;;;;;;5.93;83.84;98106.16;10416264;28;20456;-62
